Time;durP1;ratioP1;P1;durP2;ratioP2;P2;SDS_P1;SDS_P2;PMS_P1;PMS_P2;Temp;Humidity;BMP_temperature;BMP_pressure;BME280_temperature;BME280_humidity;BME280_pressure;Samples;Min_cycle;Max_cycle;Signal;HPM_P1;HPM_P2
2023/03/19 09:19:51;;;;;;;417.05;331.00;;;;;;;21.72;53.34;101808.38;5076377;27;20163;-47
2023/03/19 09:22:19;;;;;;;420.15;327.55;;;;;;;22.68;50.62;101819.47;5038577;28;20042;-46
2023/03/19 09:24:47;;;;;;;406.52;321.58;;;;;;;23.47;48.43;101814.03;5039629;28;20048;-47
2023/03/19 09:27:16;;;;;;;412.63;322.83;;;;;;;24.03;46.97;101823.44;5038703;28;20033;-47
2023/03/19 09:29:44;;;;;;;397.63;307.58;;;;;;;24.44;45.52;101815.72;5037585;28;20060;-47
2023/03/19 09:32:11;;;;;;;414.23;307.35;;;;;;;24.73;45.18;101808.59;5037335;28;20033;-46
2023/03/19 09:34:40;;;;;;;396.63;298.50;;;;;;;24.86;44.81;101815.03;5037400;28;20022;-51
2023/03/19 09:37:10;;;;;;;399.00;297.83;;;;;;;24.96;44.34;101831.88;5039847;28;20029;-47
2023/03/19 09:39:37;;;;;;;391.15;294.73;;;;;;;24.98;43.94;101831.88;5040690;28;20037;-48
2023/03/19 09:42:33;;;;;;;398.30;299.58;;;;;;;24.99;44.06;101834.53;5037330;28;20064;-48
2023/03/19 09:45:02;;;;;;;384.77;292.35;;;;;;;25.11;43.81;101839.19;5033673;28;20033;-49
2023/03/19 09:47:34;;;;;;;390.25;289.20;;;;;;;25.17;43.59;101833.16;5038262;28;20033;-48
2023/03/19 09:50:13;;;;;;;403.63;302.05;;;;;;;25.17;43.84;101847.19;5037858;28;20073;-49
2023/03/19 09:52:49;;;;;;;391.92;291.33;;;;;;;25.22;43.45;101843.78;5036520;28;20088;-45
2023/03/19 09:55:47;;;;;;;391.80;293.88;;;;;;;25.24;43.61;101844.69;5039735;28;20483;-46
2023/03/19 09:58:22;;;;;;;381.92;288.15;;;;;;;25.22;43.28;101849.91;5045479;28;20049;-46
2023/03/19 10:00:51;;;;;;;388.55;289.88;;;;;;;25.28;43.16;101852.69;5049760;28;20379;-49
2023/03/19 10:03:47;;;;;;;368.70;276.35;;;;;;;25.29;43.20;101851.84;5049684;28;20040;-46
2023/03/19 10:06:35;;;;;;;383.83;289.65;;;;;;;25.29;43.21;101858.81;5045544;28;20039;-48
2023/03/19 10:09:12;;;;;;;376.38;281.95;;;;;;;25.26;43.05;101857.03;5031404;28;20064;-47
2023/03/19 10:12:00;;;;;;;381.25;283.80;;;;;;;25.30;43.11;101861.50;5028463;28;20536;-47
2023/03/19 10:14:51;;;;;;;375.17;280.52;;;;;;;25.32;43.14;101861.50;5022787;28;20081;-46
2023/03/19 10:17:25;;;;;;;382.55;285.75;;;;;;;25.22;43.36;101852.53;5025164;28;20034;-49
2023/03/19 10:20:05;;;;;;;389.95;288.75;;;;;;;25.25;43.28;101859.59;5029591;28;20567;-48
2023/03/19 10:22:38;;;;;;;374.08;272.48;;;;;;;25.24;43.20;101857.81;5028052;28;20030;-48
2023/03/19 10:25:12;;;;;;;381.33;277.63;;;;;;;25.25;42.77;101854.34;5027412;28;20031;-49
2023/03/19 10:27:41;;;;;;;384.48;284.30;;;;;;;25.28;42.94;101863.19;5028660;28;20495;-49
2023/03/19 10:30:19;;;;;;;369.45;271.20;;;;;;;25.29;42.86;101864.06;5020214;28;20542;-48
2023/03/19 10:32:54;;;;;;;356.33;268.45;;;;;;;25.29;42.74;101869.31;5016026;28;20065;-48
2023/03/19 10:35:28;;;;;;;348.23;260.40;;;;;;;25.30;42.78;101868.47;5014758;28;20030;-49
2023/03/19 10:37:55;;;;;;;341.80;253.95;;;;;;;25.34;42.36;101865.06;5021173;28;20041;-48
2023/03/19 10:40:34;;;;;;;364.88;268.38;;;;;;;25.33;42.71;101863.28;5035435;28;20025;-52
2023/03/19 10:43:22;;;;;;;358.08;259.25;;;;;;;25.32;42.63;101861.50;5033931;28;20483;-48
2023/03/19 10:45:51;;;;;;;360.02;266.95;;;;;;;25.27;43.01;101863.16;5025512;28;20399;-48
2023/03/19 10:48:20;;;;;;;359.90;262.95;;;;;;;25.30;42.38;101857.97;5034332;28;20417;-50
2023/03/19 10:50:54;;;;;;;348.17;257.90;;;;;;;25.35;42.69;101864.22;5034228;28;20040;-49
2023/03/19 10:53:27;;;;;;;;;;;;;;;25.46;42.35;101865.34;5034788;28;20048;-51
2023/03/19 10:55:57;;;;;;;350.52;255.02;;;;;;;25.49;42.07;101867.16;5034161;28;20004;-48
2023/03/19 10:58:27;;;;;;;330.88;249.32;;;;;;;25.45;42.03;101878.47;5034477;28;20044;-50
2023/03/19 11:01:04;;;;;;;330.70;240.07;;;;;;;25.46;42.00;101872.34;5034910;28;20035;-49
2023/03/19 11:03:33;;;;;;;337.67;254.73;;;;;;;25.44;42.06;101874.06;5035084;28;20030;-49
2023/03/19 11:06:05;;;;;;;349.05;256.90;;;;;;;25.24;42.11;101848.22;5034984;28;20033;-48
2023/03/19 11:08:37;;;;;;;342.13;249.27;;;;;;;25.40;42.13;101878.31;5034674;28;20032;-48
2023/03/19 11:11:06;;;;;;;316.92;227.00;;;;;;;25.44;41.74;101879.31;5034545;28;20037;-48
2023/03/19 11:13:35;;;;;;;324.60;235.05;;;;;;;25.38;41.84;101884.41;5033789;28;20168;-48
2023/03/19 11:16:04;;;;;;;345.52;249.73;;;;;;;25.39;41.80;101883.53;5016868;28;20391;-49
2023/03/19 11:18:37;;;;;;;339.95;246.80;;;;;;;25.41;41.83;101876.59;5034500;28;20136;-48
2023/03/19 11:21:20;;;;;;;331.60;239.27;;;;;;;25.42;41.94;101881.03;5032942;28;20163;-50
2023/03/19 11:23:54;;;;;;;346.38;243.40;;;;;;;25.47;41.91;101877.63;5033290;28;20033;-47
2023/03/19 11:26:23;;;;;;;346.23;249.10;;;;;;;25.47;41.98;101887.28;5034268;28;20032;-47
2023/03/19 11:28:52;;;;;;;347.73;251.55;;;;;;;25.37;41.95;101880.91;5033995;28;20033;-48
2023/03/19 11:31:44;;;;;;;350.83;257.23;;;;;;;25.33;42.31;101879.03;5033761;28;20386;-49
2023/03/19 11:34:39;;;;;;;341.98;252.18;;;;;;;25.33;42.23;101885.16;5034265;28;20112;-48
2023/03/19 11:37:36;;;;;;;342.88;244.98;;;;;;;25.40;41.91;101880.94;5032405;28;20390;-50
2023/03/19 11:40:42;;;;;;;314.50;233.55;;;;;;;25.36;41.70;101876.50;5030278;28;20533;-47
2023/03/19 11:43:35;;;;;;;287.83;205.50;;;;;;;25.39;41.38;101883.53;5032928;28;20521;-50
2023/03/19 11:46:20;;;;;;;302.08;217.98;;;;;;;25.38;41.48;101876.50;5030200;28;20038;-47
2023/03/19 11:49:20;;;;;;;288.60;214.85;;;;;;;25.38;41.24;101873.88;5027091;28;20117;-48
2023/03/19 11:52:10;;;;;;;281.17;204.85;;;;;;;25.46;40.76;101873.22;5019868;28;20060;-47
2023/03/19 11:55:13;;;;;;;297.77;215.07;;;;;;;25.42;41.17;101871.38;5029878;28;20052;-47
2023/03/19 11:57:53;;;;;;;300.02;220.60;;;;;;;25.33;41.63;101863.28;5030222;28;20038;-48
2023/03/19 12:00:59;;;;;;;294.48;213.43;;;;;;;25.34;41.44;101859.81;5033767;28;20029;-49
2023/03/19 12:03:30;;;;;;;;;;;;;;;25.44;41.26;101859.16;5032913;28;20033;-48
2023/03/19 12:06:26;;;;;;;296.08;211.07;;;;;;;25.43;41.11;101856.53;5049017;28;19967;-51
2023/03/19 12:08:59;;;;;;;311.42;227.40;;;;;;;25.40;41.38;101854.66;5025368;28;20120;-47
2023/03/19 12:11:49;;;;;;;302.30;222.68;;;;;;;25.45;41.57;101842.56;5033641;28;20029;-52
2023/03/19 12:14:23;;;;;;;304.58;224.10;;;;;;;25.41;41.38;101839.81;5030230;28;20046;-48
2023/03/19 12:17:05;;;;;;;280.55;202.35;;;;;;;25.45;40.99;101844.31;5033341;28;20071;-48
2023/03/19 12:19:53;;;;;;;294.65;217.98;;;;;;;25.47;41.25;101843.47;5031879;28;20045;-48
2023/03/19 12:22:41;;;;;;;300.08;214.95;;;;;;;25.49;40.88;101840.88;5032701;28;20037;-49
2023/03/19 12:25:32;;;;;;;290.17;215.15;;;;;;;25.47;41.24;101846.09;5033398;28;20036;-49
2023/03/19 12:28:11;;;;;;;300.95;222.23;;;;;;;25.51;41.33;101849.69;5030148;28;20487;-47
2023/03/19 12:30:44;;;;;;;312.98;218.88;;;;;;;25.47;41.28;101848.72;5033462;28;20037;-48
2023/03/19 12:33:35;;;;;;;319.52;227.75;;;;;;;25.41;41.64;101851.19;5033344;28;20037;-48
2023/03/19 12:36:09;;;;;;;298.65;214.13;;;;;;;25.43;41.46;101853.91;5026833;28;20029;-48
2023/03/19 12:38:51;;;;;;;305.98;219.98;;;;;;;25.50;41.28;101847.03;5031586;28;20033;-48
2023/03/19 12:41:25;;;;;;;280.85;202.95;;;;;;;25.48;40.87;101847.00;5032361;28;20072;-48
2023/03/19 12:44:16;;;;;;;295.80;220.23;;;;;;;25.49;41.22;101843.50;5032835;28;20033;-49
2023/03/19 12:46:47;;;;;;;313.45;231.65;;;;;;;25.48;41.43;101845.25;5015770;28;20057;-48
2023/03/19 12:49:40;;;;;;;312.95;225.90;;;;;;;25.44;41.25;101845.16;5014070;28;20042;-48
2023/03/19 12:52:33;;;;;;;318.75;225.05;;;;;;;25.45;41.26;101847.81;5025142;28;20427;-47
2023/03/19 12:55:13;;;;;;;308.08;225.27;;;;;;;25.51;41.03;101846.19;5030930;28;20056;-47
2023/03/19 12:58:04;;;;;;;331.60;243.40;;;;;;;25.51;41.59;101852.31;5032767;28;20037;-47
2023/03/19 13:00:42;;;;;;;297.15;220.98;;;;;;;25.39;41.36;101847.66;5033086;28;20042;-47
2023/03/19 13:03:30;;;;;;;305.20;222.55;;;;;;;25.40;41.52;101840.66;5031534;28;20383;-47
2023/03/19 13:06:18;;;;;;;290.75;209.00;;;;;;;25.38;41.08;101835.38;5033139;28;20032;-49
2023/03/19 13:08:57;;;;;;;265.00;189.52;;;;;;;25.45;40.66;101836.44;5030128;28;20096;-48
2023/03/19 13:11:43;;;;;;;284.92;212.93;;;;;;;25.41;41.06;101837.19;5032976;28;20032;-46
2023/03/19 13:14:13;;;;;;;288.40;207.70;;;;;;;25.35;41.40;101840.56;5032823;28;20065;-46
2023/03/19 13:16:58;;;;;;;267.35;191.65;;;;;;;25.35;40.99;101832.69;5032628;28;20542;-46
2023/03/19 13:19:28;;;;;;;;;;;;;;;25.65;39.74;101841.22;5032478;28;20586;-47
2023/03/19 13:22:01;;;;;;;252.45;181.48;;;;;;;25.50;40.29;101845.28;5032899;28;19913;-47
2023/03/19 13:24:34;;;;;;;262.88;182.15;;;;;;;25.44;40.36;101850.41;5032598;28;20029;-47
2023/03/19 13:27:04;;;;;;;197.50;137.95;;;;;;;25.45;39.67;101849.56;5033003;28;20071;-47
2023/03/19 13:29:35;;;;;;;190.75;134.65;;;;;;;25.42;39.70;101846.88;5032080;28;20026;-46
2023/03/19 13:32:09;;;;;;;181.65;124.97;;;;;;;25.44;39.51;101840.78;5031281;28;20040;-46
2023/03/19 13:34:38;;;;;;;151.25;108.65;;;;;;;25.44;39.05;101839.91;5031051;28;20021;-46
2023/03/19 13:37:11;;;;;;;153.45;105.57;;;;;;;25.35;39.34;101840.56;5032182;28;20041;-46
2023/03/19 13:39:41;;;;;;;141.27;96.60;;;;;;;25.34;39.19;101844.06;5031539;28;20037;-47
2023/03/19 13:42:23;;;;;;;166.88;117.38;;;;;;;25.31;39.40;101837.00;5031989;28;20022;-47
2023/03/19 13:44:55;;;;;;;177.57;120.15;;;;;;;25.32;39.67;101838.75;5032883;28;20079;-50
2023/03/19 13:47:28;;;;;;;156.20;108.85;;;;;;;25.36;39.23;101841.44;5032589;28;20068;-46
2023/03/19 13:50:21;;;;;;;168.85;116.72;;;;;;;25.34;39.71;101850.19;5032628;28;20030;-50
2023/03/19 13:52:52;;;;;;;161.27;108.25;;;;;;;25.32;39.27;101844.00;5017153;28;20044;-51
2023/03/19 13:55:51;;;;;;;129.65;86.57;;;;;;;25.31;38.68;101843.97;5032398;28;20028;-50
2023/03/19 13:59:01;;;;;;;132.65;89.30;;;;;;;25.34;38.61;101850.19;5031083;28;20081;-51
2023/03/19 14:01:28;;;;;;;133.32;90.68;;;;;;;25.33;37.93;101834.41;5029437;28;20391;-52
2023/03/19 14:03:58;;;;;;;116.15;79.22;;;;;;;25.47;37.83;101842.63;5029161;28;20501;-48
2023/03/19 14:06:33;;;;;;;106.95;71.68;;;;;;;25.48;37.19;101842.63;5035934;28;20159;-50
2023/03/19 14:09:02;;;;;;;151.98;97.18;;;;;;;25.39;37.92;101844.13;5036620;28;20030;-51
2023/03/19 14:11:33;;;;;;;116.45;82.95;;;;;;;25.39;37.93;101846.78;5035132;28;20057;-51
2023/03/19 14:14:04;;;;;;;108.22;74.38;;;;;;;25.34;37.94;101849.31;5035674;28;20438;-48
2023/03/19 14:16:38;;;;;;;98.55;65.72;;;;;;;25.39;37.29;101855.56;5035784;28;20029;-48
2023/03/19 14:19:13;;;;;;;91.68;59.80;;;;;;;25.33;37.50;101851.03;5035983;28;20092;-48
2023/03/19 14:21:46;;;;;;;115.13;73.47;;;;;;;25.36;37.76;101838.81;5035043;28;20044;-47
2023/03/19 14:24:34;;;;;;;108.78;73.20;;;;;;;25.40;37.72;101846.78;5035779;28;20060;-49
2023/03/19 14:27:12;;;;;;;99.97;66.30;;;;;;;25.34;37.81;101839.66;5035952;28;20108;-49
2023/03/19 14:29:43;;;;;;;100.82;68.55;;;;;;;25.39;37.76;101841.50;5012826;28;20117;-49
2023/03/19 14:32:17;;;;;;;134.77;90.43;;;;;;;25.34;38.44;101833.53;5022998;28;20033;-49
2023/03/19 14:34:47;;;;;;;111.60;74.03;;;;;;;25.33;38.34;101843.16;5022329;28;20506;-48
2023/03/19 14:37:19;;;;;;;125.97;84.40;;;;;;;25.33;38.76;101832.63;5021570;28;20037;-49
2023/03/19 14:40:10;;;;;;;130.68;88.05;;;;;;;25.43;38.48;101828.50;5025430;28;20076;-48
2023/03/19 14:43:06;;;;;;;148.27;103.03;;;;;;;25.39;39.00;101828.38;5022245;28;20076;-49
2023/03/19 14:45:43;;;;;;;129.40;92.53;;;;;;;25.34;39.03;101817.78;5018632;28;20049;-48
2023/03/19 14:48:20;;;;;;;116.25;78.93;;;;;;;25.35;38.17;101824.81;5027847;28;20425;-48
2023/03/19 14:51:26;;;;;;;122.85;81.22;;;;;;;25.35;38.63;101824.81;5025292;28;20541;-52
2023/03/19 14:53:56;;;;;;;117.90;78.90;;;;;;;25.31;38.85;101822.97;5019442;28;20033;-49
2023/03/19 14:56:33;;;;;;;134.23;87.60;;;;;;;25.24;39.12;101813.19;5022038;28;20041;-49
2023/03/19 14:59:03;;;;;;;133.85;90.78;;;;;;;25.30;38.93;101827.34;5025351;28;20037;-49
2023/03/19 15:01:32;;;;;;;135.13;97.25;;;;;;;25.29;39.36;101836.09;5024802;28;20029;-48
2023/03/19 15:04:03;;;;;;;141.70;99.72;;;;;;;25.29;39.42;101830.84;5023025;28;20030;-48
2023/03/19 15:06:34;;;;;;;168.18;114.47;;;;;;;25.33;39.52;101834.41;5024433;28;20026;-47
2023/03/19 15:09:01;;;;;;;153.18;105.80;;;;;;;25.34;39.55;101833.53;5024985;28;20041;-48
2023/03/19 15:12:07;;;;;;;151.77;108.72;;;;;;;25.33;39.77;101837.91;5023581;28;20040;-48
2023/03/19 15:14:53;;;;;;;144.90;101.15;;;;;;;25.34;39.55;101836.16;5023174;28;20040;-48
2023/03/19 15:17:25;;;;;;;156.95;108.15;;;;;;;25.32;39.50;101840.50;5018939;28;20444;-48
2023/03/19 15:19:52;;;;;;;175.55;120.68;;;;;;;25.32;39.74;101841.38;5027085;28;20045;-48
2023/03/19 15:22:19;;;;;;;174.50;121.53;;;;;;;25.32;39.88;101836.13;5025828;28;20100;-50
2023/03/19 15:24:47;;;;;;;166.68;114.63;;;;;;;25.30;39.98;101836.97;5021376;28;20076;-48
2023/03/19 15:27:19;;;;;;;144.57;103.35;;;;;;;25.30;39.61;101843.09;5023751;28;20064;-49
2023/03/19 15:29:46;;;;;;;154.18;108.35;;;;;;;25.33;39.49;101851.03;5024650;28;20069;-48
2023/03/19 15:32:29;;;;;;;175.00;121.30;;;;;;;25.36;39.44;101852.84;5022065;28;20079;-48
2023/03/19 15:34:57;;;;;;;169.80;122.38;;;;;;;25.35;39.56;101866.84;5022405;28;20116;-51
2023/03/19 15:37:25;;;;;;;153.77;107.75;;;;;;;25.30;39.59;101865.84;5024075;28;20031;-48
2023/03/19 15:39:55;;;;;;;167.40;119.10;;;;;;;25.33;39.50;101871.16;5024747;28;20029;-48
2023/03/19 15:42:23;;;;;;;180.50;124.28;;;;;;;25.36;39.34;101873.88;5020666;28;20462;-50
2023/03/19 15:44:55;;;;;;;146.65;102.50;;;;;;;25.35;39.41;101877.34;5025046;28;20380;-49
2023/03/19 15:47:25;;;;;;;148.07;100.32;;;;;;;25.33;39.05;101869.41;5022219;28;20372;-49
2023/03/19 15:50:02;;;;;;;164.82;113.18;;;;;;;25.36;39.57;101880.84;5024273;28;20113;-49
2023/03/19 15:52:33;;;;;;;179.43;125.20;;;;;;;25.38;39.56;101884.41;5025373;28;20033;-51
2023/03/19 15:55:03;;;;;;;169.80;113.95;;;;;;;25.36;39.35;101889.63;5025353;28;20032;-48
2023/03/19 15:57:30;;;;;;;157.45;108.85;;;;;;;25.38;39.29;101881.75;5025336;28;20471;-49
2023/03/19 15:59:59;;;;;;;185.90;129.80;;;;;;;25.44;39.48;101874.06;5021006;28;20029;-48
2023/03/19 16:02:40;;;;;;;186.18;135.73;;;;;;;25.37;39.69;101877.38;5025478;28;20398;-48
2023/03/19 16:05:27;;;;;;;176.10;124.95;;;;;;;25.36;39.71;101881.75;5022996;28;20037;-48
2023/03/19 16:07:59;;;;;;;163.68;115.68;;;;;;;25.37;39.64;101875.63;5012993;28;20076;-50
2023/03/19 16:10:37;;;;;;;164.05;107.95;;;;;;;25.34;39.78;101881.69;5012509;28;20299;-48
2023/03/19 16:13:29;;;;;;;176.18;124.47;;;;;;;25.37;39.87;101887.88;5014297;28;20034;-47
2023/03/19 16:16:02;;;;;;;202.02;146.07;;;;;;;25.37;39.66;101875.63;5013253;28;20030;-48
2023/03/19 16:18:40;;;;;;;201.05;145.38;;;;;;;25.36;39.56;101876.50;5014119;28;20064;-47
2023/03/19 16:21:12;;;;;;;202.82;143.20;;;;;;;25.40;40.05;101873.06;5013545;28;20036;-48
2023/03/19 16:23:50;;;;;;;195.80;143.50;;;;;;;25.38;39.83;101869.53;5013020;28;20562;-47
2023/03/19 16:26:21;;;;;;;183.60;129.70;;;;;;;25.37;39.76;101874.75;5013584;28;20408;-47
2023/03/19 16:29:10;;;;;;;182.95;130.13;;;;;;;25.43;39.67;101878.41;5013353;28;20117;-48
2023/03/19 16:31:51;;;;;;;189.57;131.35;;;;;;;25.44;39.69;101876.69;5010108;28;20046;-48
2023/03/19 16:34:30;;;;;;;186.95;134.88;;;;;;;25.36;39.72;101872.97;5013776;28;20033;-48
2023/03/19 16:36:58;;;;;;;175.27;123.40;;;;;;;25.34;39.70;101875.56;5013406;28;20034;-52
2023/03/19 16:39:37;;;;;;;171.15;116.03;;;;;;;25.31;39.84;101879.03;5013286;28;20113;-48
2023/03/19 16:42:18;;;;;;;185.10;129.10;;;;;;;25.31;39.69;101881.66;5012090;28;20510;-48
2023/03/19 16:44:48;;;;;;;173.13;122.63;;;;;;;25.29;39.64;101883.34;5012161;28;20072;-47
2023/03/19 16:47:16;;;;;;;201.88;137.95;;;;;;;25.29;39.74;101883.34;5015286;28;20099;-48
2023/03/19 16:49:43;;;;;;;177.93;130.07;;;;;;;25.32;39.59;101885.16;5025733;28;20078;-47
2023/03/19 16:52:17;;;;;;;186.73;127.95;;;;;;;25.34;39.49;101892.19;5011374;28;20430;-47
2023/03/19 16:54:46;;;;;;;164.48;118.68;;;;;;;25.34;39.63;101886.94;5013562;28;20033;-47
2023/03/19 16:57:15;;;;;;;173.93;122.43;;;;;;;25.38;39.53;101905.41;5012849;28;20562;-47
2023/03/19 16:59:44;;;;;;;172.35;125.00;;;;;;;25.39;39.32;101892.31;5023015;28;20410;-49
2023/03/19 17:02:13;;;;;;;186.45;129.90;;;;;;;25.42;39.20;101899.41;5058510;28;20076;-49
2023/03/19 17:04:42;;;;;;;172.27;123.15;;;;;;;25.30;39.56;101886.84;5053122;28;20082;-51
2023/03/19 17:07:11;;;;;;;183.23;128.10;;;;;;;25.33;39.39;101889.56;5050360;28;20437;-49
2023/03/19 17:09:40;;;;;;;191.57;129.57;;;;;;;25.41;39.65;101898.47;5051979;28;20033;-47
2023/03/19 17:12:13;;;;;;;194.65;134.88;;;;;;;25.40;39.48;101906.31;5051416;28;20029;-47
2023/03/19 17:14:41;;;;;;;192.05;136.68;;;;;;;25.39;39.65;101900.22;5051565;28;20041;-47
2023/03/19 17:17:18;;;;;;;191.52;134.25;;;;;;;25.38;39.50;101903.69;5052152;28;20017;-47
2023/03/19 17:19:46;;;;;;;192.20;137.57;;;;;;;25.31;39.77;101905.28;5051837;28;20055;-48
2023/03/19 17:22:15;;;;;;;176.32;124.90;;;;;;;25.34;39.49;101907.97;5060023;28;20036;-47
2023/03/19 17:24:42;;;;;;;175.80;126.32;;;;;;;25.30;39.61;101914.03;5050937;28;20463;-47
2023/03/19 17:27:10;;;;;;;189.45;129.60;;;;;;;25.28;39.59;101923.59;5050515;28;20033;-49
2023/03/19 17:29:38;;;;;;;186.90;130.55;;;;;;;25.34;39.56;101917.59;5052469;28;20025;-48
2023/03/19 17:32:12;;;;;;;190.00;136.95;;;;;;;25.36;39.75;101926.41;5079918;23;20066;-48
2023/03/19 17:34:40;;;;;;;188.82;137.32;;;;;;;25.36;39.73;101923.78;5003630;28;20440;-49
2023/03/19 17:37:13;;;;;;;185.27;130.07;;;;;;;25.36;39.67;101915.88;5011562;28;20018;-49
2023/03/19 17:39:44;;;;;;;185.82;133.23;;;;;;;25.38;39.67;101918.53;5028242;28;20430;-51
2023/03/19 17:42:32;;;;;;;187.85;128.90;;;;;;;25.37;39.74;101915.03;5016511;28;20030;-48
2023/03/19 17:45:00;;;;;;;184.27;126.00;;;;;;;25.37;39.76;101916.75;5016472;28;20025;-49
2023/03/19 17:47:29;;;;;;;181.93;125.95;;;;;;;25.43;39.33;101922.19;5016903;28;20165;-52
2023/03/19 17:49:58;;;;;;;192.05;134.82;;;;;;;25.32;39.84;101928.03;5009315;28;20068;-49
2023/03/19 17:52:29;;;;;;;185.75;133.45;;;;;;;25.31;39.85;101928.94;5004231;28;20030;-50
2023/03/19 17:54:57;;;;;;;185.68;130.38;;;;;;;25.37;39.62;101932.53;5003307;28;20495;-50
2023/03/19 17:57:26;;;;;;;183.32;132.13;;;;;;;25.39;39.38;101929.09;5006786;28;20113;-49
2023/03/19 17:59:55;;;;;;;179.18;125.68;;;;;;;25.39;39.51;101934.34;5005027;28;20049;-49
2023/03/19 18:02:30;;;;;;;176.35;125.75;;;;;;;25.40;39.55;101943.09;5004198;28;20495;-49
2023/03/19 18:04:59;;;;;;;172.25;124.95;;;;;;;25.32;39.78;101943.81;5002639;28;20057;-48
2023/03/19 18:07:27;;;;;;;172.82;122.30;;;;;;;25.32;39.69;101946.44;5004015;28;20550;-49
2023/03/19 18:09:55;;;;;;;170.20;118.00;;;;;;;25.33;39.58;101949.97;5006372;28;20044;-50
2023/03/19 18:12:23;;;;;;;160.88;116.30;;;;;;;25.40;39.52;101945.72;5002830;28;20029;-48
2023/03/19 18:14:50;;;;;;;166.10;117.38;;;;;;;25.44;39.40;101943.22;5006319;28;20066;-48
2023/03/19 18:17:19;;;;;;;161.30;116.03;;;;;;;25.48;39.51;101946.84;5005040;28;20030;-48
2023/03/19 18:19:49;;;;;;;158.00;110.78;;;;;;;25.50;39.30;101945.09;5007566;28;20026;-48
2023/03/19 18:22:19;;;;;;;152.88;108.45;;;;;;;25.53;39.33;101944.31;5005670;28;20116;-48
2023/03/19 18:24:47;;;;;;;149.65;105.97;;;;;;;25.51;39.44;101940.75;5004979;28;20030;-48
2023/03/19 18:27:15;;;;;;;157.27;107.65;;;;;;;25.55;39.18;101942.59;5004792;28;20366;-48
2023/03/19 18:29:43;;;;;;;156.30;108.65;;;;;;;25.48;39.39;101945.09;5006072;28;20542;-48
2023/03/19 18:32:16;;;;;;;144.70;103.22;;;;;;;25.52;39.30;101945.16;5005805;28;20125;-48
2023/03/19 18:34:44;;;;;;;147.27;102.65;;;;;;;25.50;39.34;101941.59;4986051;28;20564;-48
2023/03/19 18:37:18;;;;;;;140.07;100.97;;;;;;;25.45;39.58;101938.88;5004484;28;20034;-49
2023/03/19 18:39:47;;;;;;;142.35;100.38;;;;;;;25.52;39.49;101942.53;5004663;28;20456;-48
2023/03/19 18:42:16;;;;;;;138.27;97.03;;;;;;;25.51;39.57;101954.75;5004358;28;20160;-48
2023/03/19 18:44:44;;;;;;;148.82;101.50;;;;;;;25.50;39.46;101958.25;5004189;28;20057;-49
2023/03/19 18:47:15;;;;;;;138.65;98.43;;;;;;;25.48;39.42;101960.84;5006026;28;20061;-48
2023/03/19 18:49:43;;;;;;;137.50;96.40;;;;;;;25.47;39.60;101959.06;5007195;28;20029;-50
2023/03/19 18:52:13;;;;;;;141.88;93.15;;;;;;;25.45;39.57;101963.41;5001911;28;20026;-48
2023/03/19 18:54:42;;;;;;;143.55;95.57;;;;;;;25.49;39.70;101961.72;5005289;28;20030;-48
2023/03/19 18:57:11;;;;;;;134.55;93.25;;;;;;;25.47;39.67;101961.69;5003337;28;20030;-48
2023/03/19 18:59:40;;;;;;;128.07;90.00;;;;;;;25.47;39.34;101963.44;5005058;28;20122;-48
2023/03/19 19:02:30;;;;;;;130.10;90.72;;;;;;;25.52;39.46;101974.94;5002842;28;20061;-48
2023/03/19 19:04:59;;;;;;;131.38;92.03;;;;;;;25.48;39.72;101979.22;5001337;28;20125;-49
2023/03/19 19:07:28;;;;;;;135.18;92.10;;;;;;;25.50;39.69;101976.63;5004153;28;20655;-50
2023/03/19 19:09:55;;;;;;;129.50;84.03;;;;;;;25.49;39.49;101985.34;5006914;28;20066;-48
2023/03/19 19:12:25;;;;;;;128.40;85.57;;;;;;;25.52;39.42;101977.56;5004555;28;20057;-48
2023/03/19 19:14:53;;;;;;;135.10;87.55;;;;;;;25.45;39.64;101967.78;5004799;28;20022;-50
2023/03/19 19:17:23;;;;;;;125.00;89.20;;;;;;;25.36;40.01;101984.19;4985167;28;20431;-48
2023/03/19 19:19:51;;;;;;;131.90;86.85;;;;;;;25.35;40.15;101985.03;5002111;28;20055;-50
2023/03/19 19:22:18;;;;;;;119.07;86.25;;;;;;;25.43;39.79;101985.25;5005567;28;20030;-49
2023/03/19 19:24:46;;;;;;;122.65;86.72;;;;;;;25.46;40.00;101978.31;5003573;28;20034;-49
2023/03/19 19:27:17;;;;;;;128.38;90.32;;;;;;;25.46;39.84;101972.19;5003554;28;20472;-49
2023/03/19 19:29:44;;;;;;;129.05;88.78;;;;;;;25.38;40.11;101974.59;5008810;28;20080;-48
2023/03/19 19:32:31;;;;;;;125.93;86.88;;;;;;;25.40;40.05;101987.75;5012668;28;20053;-48
2023/03/19 19:35:00;;;;;;;120.68;85.47;;;;;;;25.42;40.12;101999.22;5009070;28;20030;-49
2023/03/19 19:37:28;;;;;;;130.50;84.53;;;;;;;25.46;39.82;102001.94;5007382;28;20029;-46
2023/03/19 19:39:55;;;;;;;121.20;84.20;;;;;;;25.43;39.91;101994.00;5001953;28;20495;-48
2023/03/19 19:42:22;;;;;;;120.72;83.05;;;;;;;25.43;39.88;101995.75;4996301;28;20022;-48
2023/03/19 19:44:53;;;;;;;119.50;84.18;;;;;;;25.43;39.83;101988.75;5007078;28;20022;-48
2023/03/19 19:47:20;;;;;;;111.63;80.35;;;;;;;25.42;39.95;101993.97;5003254;28;20752;-48
2023/03/19 19:49:48;;;;;;;114.68;82.57;;;;;;;25.43;39.85;101996.63;5002378;28;20424;-49
2023/03/19 19:52:17;;;;;;;115.07;79.25;;;;;;;25.42;40.16;102001.84;5007524;28;20426;-49
2023/03/19 19:54:45;;;;;;;111.20;79.55;;;;;;;25.38;39.91;102002.59;5011242;28;20061;-48
2023/03/19 19:57:17;;;;;;;110.53;78.47;;;;;;;25.40;39.74;102000.88;5003907;28;20076;-52
2023/03/19 19:59:45;;;;;;;111.95;80.43;;;;;;;25.37;40.17;101999.09;5000839;28;20037;-48
2023/03/19 20:02:24;;;;;;;118.68;81.60;;;;;;;25.38;40.00;102002.59;4999478;28;20033;-49
2023/03/19 20:04:52;;;;;;;105.25;76.50;;;;;;;25.41;40.15;101997.41;4997349;28;20119;-48
2023/03/19 20:07:20;;;;;;;117.25;79.57;;;;;;;25.38;39.97;101995.63;4990538;28;20439;-48
2023/03/19 20:09:47;;;;;;;110.22;76.13;;;;;;;25.33;40.05;101992.84;5000086;28;20065;-48
2023/03/19 20:12:20;;;;;;;110.93;77.65;;;;;;;25.33;39.97;101994.59;4999176;28;20716;-48
2023/03/19 20:14:49;;;;;;;107.13;77.03;;;;;;;25.37;40.11;101988.59;5011817;28;20025;-48
2023/03/19 20:17:17;;;;;;;102.00;71.85;;;;;;;25.34;39.98;101997.25;5013104;28;20030;-49
2023/03/19 20:19:46;;;;;;;114.82;76.30;;;;;;;25.37;39.91;101991.22;5012833;28;20490;-48
2023/03/19 20:22:14;;;;;;;100.10;71.72;;;;;;;25.42;39.92;102001.84;5013699;28;20068;-48
2023/03/19 20:24:42;;;;;;;102.15;73.28;;;;;;;25.44;39.70;101992.28;5013664;28;20028;-48
2023/03/19 20:27:20;;;;;;;104.22;70.03;;;;;;;25.46;39.36;101994.06;5013673;28;20030;-48
2023/03/19 20:29:49;;;;;;;95.35;68.63;;;;;;;25.43;39.25;101996.63;5008448;28;20118;-49
2023/03/19 20:32:27;;;;;;;96.55;66.93;;;;;;;25.43;39.33;101993.13;5012397;28;20049;-48
2023/03/19 20:34:54;;;;;;;92.53;68.43;;;;;;;25.40;39.37;101990.38;5012851;28;20088;-50
2023/03/19 20:37:21;;;;;;;94.93;68.07;;;;;;;25.34;39.52;101992.00;5013605;28;20369;-50
2023/03/19 20:43:23;;;;;;;94.05;64.80;;;;;;;25.33;39.39;101992.84;4990015;28;20545;-48
2023/03/19 20:45:51;;;;;;;93.10;63.97;;;;;;;25.34;39.19;101989.38;4991626;28;20041;-48
2023/03/19 20:48:19;;;;;;;93.47;65.10;;;;;;;25.33;39.50;101981.47;4991128;28;20034;-48
2023/03/19 20:50:48;;;;;;;89.35;62.47;;;;;;;25.44;39.43;101984.38;4975685;28;20462;-49
2023/03/19 20:53:17;;;;;;;110.75;75.80;;;;;;;25.44;39.16;101985.25;4975773;28;20046;-46